createdAt,value
2022-12-04T00:01:28.554Z,28.38
2022-12-04T00:03:58.113Z,23.95
2022-12-04T00:06:25.450Z,25.58
2022-12-04T00:08:53.745Z,26.08
2022-12-04T00:11:24.087Z,24.60
2022-12-04T00:13:51.176Z,25.83
2022-12-04T00:16:20.759Z,28.23
2022-12-04T00:18:47.723Z,24.80
2022-12-04T00:21:16.529Z,23.73
2022-12-04T00:23:43.488Z,26.60
2022-12-04T00:26:16.799Z,25.08
2022-12-04T00:28:44.448Z,24.10
2022-12-04T00:31:17.567Z,28.80
2022-12-04T00:33:45.065Z,21.50
2022-12-04T00:36:14.328Z,25.30
2022-12-04T00:38:42.722Z,23.83
2022-12-04T00:41:11.730Z,25.20
2022-12-04T00:43:38.628Z,26.65
2022-12-04T00:46:05.801Z,23.77
2022-12-04T00:48:32.915Z,24.88
2022-12-04T00:51:04.503Z,24.30
2022-12-04T00:53:31.274Z,24.40
2022-12-04T00:55:58.244Z,25.02
2022-12-04T00:58:25.203Z,24.70
2022-12-04T01:01:02.708Z,26.08
2022-12-04T01:03:29.844Z,23.10
2022-12-04T01:05:56.627Z,25.60
2022-12-04T01:08:23.344Z,26.58
2022-12-04T01:10:50.396Z,27.90
2022-12-04T01:13:17.172Z,23.92
2022-12-04T01:15:44.152Z,26.70
2022-12-04T01:18:12.273Z,24.63
2022-12-04T01:20:39.120Z,25.35
2022-12-04T01:23:06.712Z,24.88
2022-12-04T01:25:33.423Z,25.38
2022-12-04T01:28:00.132Z,25.38
2022-12-04T01:30:26.920Z,24.83
2022-12-04T01:32:53.646Z,24.58
2022-12-04T01:35:20.371Z,27.50
2022-12-04T01:37:47.124Z,23.90
2022-12-04T01:40:15.763Z,21.33
2022-12-04T01:42:42.554Z,21.88
2022-12-04T01:45:37.570Z,24.77
2022-12-04T01:48:19.489Z,27.42
2022-12-04T01:50:50.103Z,28.70
2022-12-04T01:53:17.708Z,23.15
2022-12-04T01:55:45.183Z,24.42
2022-12-04T01:58:12.688Z,24.33
2022-12-04T02:00:39.944Z,22.83
2022-12-04T02:03:06.949Z,24.00
2022-12-04T02:05:33.734Z,23.13
2022-12-04T02:08:05.608Z,27.23
2022-12-04T02:10:54.643Z,24.30
2022-12-04T02:14:23.233Z,25.40
2022-12-04T02:17:11.757Z,24.10
2022-12-04T02:19:57.279Z,29.60
2022-12-04T02:22:52.049Z,24.48
2022-12-04T02:25:30.071Z,22.02
2022-12-04T02:28:13.918Z,24.90
2022-12-04T02:30:43.842Z,24.90
2022-12-04T02:33:20.791Z,23.67
2022-12-04T02:36:07.036Z,26.58
2022-12-04T02:38:33.727Z,23.23
2022-12-04T02:41:17.177Z,30.20
2022-12-04T02:43:45.882Z,21.80
2022-12-04T02:46:21.805Z,26.80
2022-12-04T02:48:51.803Z,24.88
2022-12-04T02:51:21.696Z,26.95
2022-12-04T02:53:54.435Z,26.15
2022-12-04T02:56:26.699Z,25.08
2022-12-04T02:58:58.812Z,24.85
2022-12-04T03:01:32.097Z,27.85
2022-12-04T03:04:16.756Z,25.95
2022-12-04T03:06:47.899Z,27.55
2022-12-04T03:09:26.728Z,18.02
2022-12-04T03:12:00.897Z,29.98
2022-12-04T03:14:35.596Z,23.52
2022-12-04T03:17:08.420Z,23.30
2022-12-04T03:19:41.384Z,27.30
2022-12-04T03:22:14.921Z,23.98
2022-12-04T03:24:50.584Z,25.40
2022-12-04T03:27:33.416Z,20.45
2022-12-04T03:30:09.232Z,24.10
2022-12-04T03:32:51.043Z,26.83
2022-12-04T03:37:59.942Z,22.30
2022-12-04T03:40:38.173Z,20.95
2022-12-04T03:43:19.976Z,30.65
2022-12-04T03:48:31.215Z,22.98
2022-12-04T03:51:04.188Z,26.58
2022-12-04T03:53:39.315Z,24.20
2022-12-04T03:56:17.219Z,24.10
2022-12-04T03:58:49.239Z,21.95
2022-12-04T04:01:20.358Z,27.08
2022-12-04T04:03:51.532Z,25.80
2022-12-04T04:06:26.115Z,25.55
2022-12-04T04:08:56.987Z,25.15
2022-12-04T04:11:39.234Z,22.08
2022-12-04T04:14:30.632Z,27.38
2022-12-04T04:17:23.380Z,24.70
2022-12-04T04:20:15.135Z,24.17
2022-12-04T04:23:01.283Z,28.40
2022-12-04T04:25:29.261Z,24.17
2022-12-04T04:27:58.511Z,22.63
2022-12-04T04:30:27.808Z,27.95
2022-12-04T04:33:11.778Z,25.30
2022-12-04T04:36:02.708Z,25.58
2022-12-04T04:38:40.145Z,22.37
2022-12-04T04:41:15.096Z,25.88
2022-12-04T04:43:41.740Z,27.63
2022-12-04T04:46:31.106Z,24.50
2022-12-04T04:49:01.547Z,23.88
2022-12-04T04:51:30.295Z,22.52
2022-12-04T04:54:00.805Z,24.27
2022-12-04T04:56:27.755Z,22.52
2022-12-04T04:58:54.492Z,22.52
2022-12-04T05:01:24.825Z,21.50
2022-12-04T05:03:51.564Z,25.67
2022-12-04T05:06:18.344Z,24.65
2022-12-04T05:08:45.172Z,23.83
2022-12-04T05:11:16.275Z,23.20
2022-12-04T05:13:43.213Z,26.67
2022-12-04T05:16:15.103Z,21.30
2022-12-04T05:19:02.126Z,22.58
2022-12-04T05:21:28.968Z,19.33
2022-12-04T05:23:55.708Z,23.73
2022-12-04T05:26:22.443Z,26.60
2022-12-04T05:28:49.184Z,20.10
2022-12-04T05:31:16.078Z,23.02
2022-12-04T05:33:42.889Z,20.85
2022-12-04T05:36:11.043Z,24.75
2022-12-04T05:38:37.947Z,26.60
2022-12-04T05:41:06.120Z,25.23
2022-12-04T05:43:33.736Z,22.75
2022-12-04T05:46:06.040Z,22.42
2022-12-04T05:48:34.744Z,24.45
2022-12-04T05:51:06.362Z,29.75
2022-12-04T05:56:02.631Z,24.05
2022-12-04T05:58:29.462Z,21.75
2022-12-04T06:00:56.210Z,20.67
2022-12-04T06:03:23.154Z,23.95
2022-12-04T06:05:49.966Z,20.95
2022-12-04T06:08:16.914Z,24.95
2022-12-04T06:10:43.687Z,25.88
2022-12-04T06:13:11.642Z,23.38
2022-12-04T06:15:39.995Z,18.45
2022-12-04T06:18:07.088Z,20.35
2022-12-04T06:20:34.662Z,20.42
2022-12-04T06:23:01.762Z,21.20
2022-12-04T06:25:28.968Z,20.73
2022-12-04T06:27:55.920Z,23.40
2022-12-04T06:30:23.164Z,21.83
2022-12-04T06:32:49.937Z,23.35
2022-12-04T06:35:16.731Z,19.98
2022-12-04T06:37:43.528Z,24.73
2022-12-04T06:40:10.660Z,24.95
2022-12-04T06:42:37.437Z,22.77
2022-12-04T06:45:04.577Z,21.02
2022-12-04T06:47:31.390Z,24.48
2022-12-04T06:49:58.435Z,24.63
2022-12-04T06:52:25.460Z,21.65
2022-12-04T06:54:52.167Z,22.23
2022-12-04T06:57:18.909Z,19.00
2022-12-04T06:59:45.683Z,24.35
2022-12-04T07:02:12.540Z,30.10
2022-12-04T07:04:39.402Z,22.52
2022-12-04T07:07:09.958Z,19.15
2022-12-04T07:09:36.892Z,23.05
2022-12-04T07:12:04.089Z,23.00
2022-12-04T07:14:30.933Z,24.83
2022-12-04T07:16:58.510Z,21.75
2022-12-04T07:19:25.281Z,21.48
2022-12-04T07:21:52.040Z,24.20
2022-12-04T07:24:18.812Z,25.25
2022-12-04T07:26:46.040Z,23.08
2022-12-04T07:29:12.907Z,23.20
2022-12-04T07:31:39.715Z,21.25
2022-12-04T07:34:06.731Z,23.13
2022-12-04T07:36:33.512Z,15.88
2022-12-04T07:39:00.454Z,26.50
2022-12-04T07:41:27.170Z,22.33
2022-12-04T07:43:54.497Z,19.50
2022-12-04T07:46:24.182Z,20.70
2022-12-04T07:48:51.200Z,20.33
2022-12-04T07:51:24.130Z,20.55
2022-12-04T07:53:53.352Z,19.65
2022-12-04T07:56:20.692Z,21.65
2022-12-04T07:58:47.630Z,17.65
2022-12-04T08:01:20.141Z,21.60
2022-12-04T08:03:49.410Z,19.70
2022-12-04T08:06:21.808Z,22.77
2022-12-04T08:08:49.232Z,21.25
2022-12-04T08:11:18.840Z,23.52
2022-12-04T08:13:45.951Z,17.33
2022-12-04T08:16:13.930Z,19.40
2022-12-04T08:18:41.660Z,21.17
2022-12-04T08:21:14.106Z,19.63
2022-12-04T08:23:42.490Z,20.35
2022-12-04T08:26:10.847Z,18.30
2022-12-04T08:28:39.969Z,17.92
2022-12-04T08:31:08.163Z,19.67
2022-12-04T08:33:35.384Z,18.38
2022-12-04T08:36:02.536Z,19.50
2022-12-04T08:38:29.279Z,20.27
2022-12-04T08:41:01.171Z,19.67
2022-12-04T08:43:28.210Z,16.60
2022-12-04T08:46:03.333Z,17.73
2022-12-04T08:48:30.524Z,18.27
2022-12-04T08:50:57.440Z,21.55
2022-12-04T08:53:24.616Z,17.98
2022-12-04T08:55:54.630Z,23.27
2022-12-04T08:58:23.028Z,20.60
2022-12-04T09:00:50.060Z,23.25
2022-12-04T09:03:19.553Z,19.02
2022-12-04T09:05:46.635Z,16.25
2022-12-04T09:08:15.284Z,18.75
2022-12-04T09:10:42.628Z,20.95
2022-12-04T09:13:09.590Z,18.70
2022-12-04T09:15:40.048Z,16.50
2022-12-04T09:18:08.402Z,19.73
2022-12-04T09:20:36.500Z,17.75
2022-12-04T09:23:05.366Z,20.20
2022-12-04T09:25:36.458Z,16.80
2022-12-04T09:28:04.052Z,16.07
2022-12-04T09:30:30.803Z,18.42
2022-12-04T09:32:57.572Z,17.83
2022-12-04T09:35:24.439Z,16.65
2022-12-04T09:37:51.209Z,17.20
2022-12-04T09:40:47.795Z,14.85
2022-12-04T09:43:44.194Z,16.30
2022-12-04T09:46:18.827Z,14.13
2022-12-04T09:48:48.694Z,16.00
2022-12-04T09:51:19.667Z,15.07
2022-12-04T09:53:52.509Z,16.23
2022-12-04T09:56:21.375Z,16.55
2022-12-04T09:58:58.394Z,16.88
2022-12-04T10:01:35.391Z,16.48
2022-12-04T10:04:06.060Z,15.20
2022-12-04T10:06:47.786Z,15.25
2022-12-04T10:09:27.215Z,13.63
2022-12-04T10:12:13.741Z,13.57
2022-12-04T10:15:11.688Z,12.77
2022-12-04T10:18:01.047Z,13.68
2022-12-04T10:20:42.995Z,12.98
2022-12-04T10:23:31.444Z,17.48
2022-12-04T10:26:00.289Z,13.60
2022-12-04T10:28:27.043Z,19.50
2022-12-04T10:30:57.380Z,16.13
2022-12-04T10:33:33.536Z,16.00
2022-12-04T10:36:01.609Z,16.85
2022-12-04T10:38:49.886Z,12.90
2022-12-04T10:41:22.779Z,11.98
2022-12-04T10:43:50.307Z,15.48
2022-12-04T10:46:31.648Z,14.73
2022-12-04T10:49:04.471Z,18.15
2022-12-04T10:51:40.148Z,11.07
2022-12-04T10:54:37.410Z,14.50
2022-12-04T10:57:07.702Z,13.52
2022-12-04T10:59:35.794Z,14.02
2022-12-04T11:02:13.411Z,10.55
2022-12-04T11:04:42.003Z,10.30
2022-12-04T11:07:19.663Z,10.77
2022-12-04T11:10:29.688Z,13.23
2022-12-04T11:12:59.045Z,13.48
2022-12-04T11:15:26.567Z,11.18
2022-12-04T11:17:53.357Z,12.05
2022-12-04T11:20:24.011Z,12.98
2022-12-04T11:22:52.872Z,15.43
2022-12-04T11:25:22.721Z,13.25
2022-12-04T11:27:53.947Z,14.10
2022-12-04T11:30:40.968Z,15.55
2022-12-04T11:33:18.519Z,12.45
2022-12-04T11:35:52.469Z,11.55
2022-12-04T11:38:20.858Z,10.93
2022-12-04T11:40:53.868Z,16.25
2022-12-04T11:43:21.828Z,13.65
2022-12-04T11:46:04.674Z,10.98
2022-12-04T11:48:41.016Z,11.27
2022-12-04T11:51:33.671Z,14.57
2022-12-04T11:54:11.805Z,13.40
2022-12-04T11:56:45.795Z,12.30
2022-12-04T11:59:24.241Z,9.10
2022-12-04T12:02:00.000Z,13.20
2022-12-04T12:04:26.838Z,12.68
2022-12-04T12:07:21.002Z,11.80
2022-12-04T12:10:23.741Z,11.32
2022-12-04T12:12:56.454Z,13.98
2022-12-04T12:15:43.040Z,12.43
2022-12-04T12:18:22.472Z,12.07
2022-12-04T12:21:27.446Z,15.48
2022-12-04T12:24:15.398Z,15.63
2022-12-04T12:26:55.175Z,13.52
2022-12-04T12:29:56.753Z,14.63
2022-12-04T12:32:48.900Z,16.73
2022-12-04T12:35:24.870Z,18.83
2022-12-04T12:37:54.622Z,14.25
2022-12-04T12:40:39.913Z,17.27
2022-12-04T12:43:14.265Z,17.75
2022-12-04T12:45:50.178Z,16.63
2022-12-04T12:48:24.878Z,20.45
2022-12-04T12:51:28.687Z,16.30
2022-12-04T12:53:53.602Z,13.77
2022-12-04T12:56:31.439Z,18.20
2022-12-04T12:59:03.784Z,17.23
2022-12-04T13:02:00.235Z,17.00
2022-12-04T13:04:30.585Z,17.15
2022-12-04T13:07:32.421Z,14.77
2022-12-04T13:10:07.896Z,16.85
2022-12-04T13:12:47.596Z,19.17
2022-12-04T13:15:20.912Z,17.40
2022-12-04T13:17:50.869Z,19.75
2022-12-04T13:20:27.308Z,18.05
2022-12-04T13:23:16.048Z,16.05
2022-12-04T13:26:14.864Z,15.65
2022-12-04T13:28:48.726Z,21.52
2022-12-04T13:31:41.366Z,17.85
2022-12-04T13:34:59.502Z,20.35
2022-12-04T13:37:28.919Z,18.48
2022-12-04T13:40:29.764Z,16.65
2022-12-04T13:43:44.715Z,21.33
2022-12-04T13:46:30.345Z,17.67
2022-12-04T13:49:29.731Z,22.88
2022-12-04T13:51:58.328Z,22.02
2022-12-04T13:54:43.069Z,14.00
2022-12-04T13:57:16.722Z,17.77
2022-12-04T13:59:44.287Z,19.60
2022-12-04T14:02:22.586Z,17.90
2022-12-04T14:04:58.484Z,18.73
2022-12-04T14:07:25.415Z,17.35
2022-12-04T14:09:54.516Z,15.63
2022-12-04T14:12:28.306Z,20.08
2022-12-04T14:15:03.157Z,19.13
2022-12-04T14:17:37.075Z,16.40
2022-12-04T14:20:27.430Z,17.75
2022-12-04T14:22:54.232Z,17.02
2022-12-04T14:25:34.616Z,17.77
2022-12-04T14:28:35.973Z,17.55
2022-12-04T14:31:25.816Z,18.25
2022-12-04T14:33:58.492Z,18.17
2022-12-04T14:36:41.146Z,18.02
2022-12-04T14:39:20.979Z,16.58
2022-12-04T14:41:47.830Z,18.77
2022-12-04T14:44:27.193Z,14.95
2022-12-04T14:46:58.847Z,14.75
2022-12-04T14:52:28.538Z,17.35
2022-12-04T14:55:14.739Z,19.48
2022-12-04T14:57:44.609Z,14.82
2022-12-04T15:00:22.887Z,23.20
2022-12-04T15:02:55.104Z,19.08
2022-12-04T15:05:31.132Z,15.38
2022-12-04T15:08:01.462Z,16.73
2022-12-04T15:10:50.824Z,18.02
2022-12-04T15:13:28.067Z,15.77
2022-12-04T15:15:55.044Z,13.23
2022-12-04T15:18:21.956Z,19.00
2022-12-04T15:20:48.650Z,16.58
2022-12-04T15:23:35.012Z,13.32
2022-12-04T15:26:05.634Z,14.80
2022-12-04T15:28:42.047Z,13.77
2022-12-04T15:31:16.587Z,14.00
2022-12-04T15:33:45.107Z,14.02
2022-12-04T15:36:23.516Z,13.35
2022-12-04T15:38:52.871Z,14.60
2022-12-04T15:41:34.076Z,16.48
2022-12-04T15:44:01.672Z,13.20
2022-12-04T15:46:35.445Z,19.67
2022-12-04T15:49:17.333Z,13.13
2022-12-04T15:51:48.121Z,14.40
2022-12-04T15:54:26.323Z,17.92
2022-12-04T15:57:01.680Z,15.05
2022-12-04T15:59:30.309Z,15.02
2022-12-04T16:02:06.577Z,14.68
2022-12-04T16:04:35.635Z,12.52
2022-12-04T16:07:02.894Z,15.40
2022-12-04T16:09:30.426Z,13.43
2022-12-04T16:12:02.881Z,13.82
2022-12-04T16:14:30.176Z,13.02
2022-12-04T16:17:05.539Z,10.32
2022-12-04T16:19:38.751Z,11.98
2022-12-04T16:22:18.295Z,11.52
2022-12-04T16:24:47.878Z,10.70
2022-12-04T16:27:22.554Z,11.75
2022-12-04T16:29:50.283Z,11.50
2022-12-04T16:32:19.861Z,13.75
2022-12-04T16:34:47.301Z,13.63
2022-12-04T16:37:19.893Z,6.75
2022-12-04T16:39:47.446Z,13.65
2022-12-04T16:42:22.302Z,14.32
2022-12-04T16:44:50.092Z,13.57
2022-12-04T16:47:17.687Z,14.32
2022-12-04T16:49:47.338Z,9.20
2022-12-04T16:52:14.387Z,13.00
2022-12-04T16:54:41.543Z,15.40
2022-12-04T16:57:09.239Z,12.20
2022-12-04T16:59:36.755Z,12.57
2022-12-04T17:02:06.987Z,13.10
2022-12-04T17:04:33.982Z,12.52
2022-12-04T17:07:00.836Z,15.10
2022-12-04T17:09:27.540Z,15.70
2022-12-04T17:11:54.269Z,19.25
2022-12-04T17:14:21.047Z,17.08
2022-12-04T17:16:48.116Z,15.57
2022-12-04T17:19:15.443Z,13.57
2022-12-04T17:21:42.255Z,14.32
2022-12-04T17:24:09.324Z,17.85
2022-12-04T17:26:36.235Z,12.82
2022-12-04T17:29:02.920Z,14.02
2022-12-04T17:31:29.776Z,17.02
2022-12-04T17:33:56.672Z,14.98
2022-12-04T17:36:26.187Z,14.27
2022-12-04T17:38:55.441Z,19.15
2022-12-04T17:41:22.547Z,13.65
2022-12-04T17:43:49.383Z,14.15
2022-12-04T17:46:21.514Z,15.60
2022-12-04T17:48:49.415Z,16.23
2022-12-04T17:51:23.727Z,15.70
2022-12-04T17:53:51.444Z,18.17
2022-12-04T17:56:22.064Z,15.65
2022-12-04T17:58:49.849Z,15.73
2022-12-04T18:01:19.515Z,15.75
2022-12-04T18:03:57.683Z,15.63
2022-12-04T18:06:27.077Z,15.85
2022-12-04T18:08:54.763Z,18.23
2022-12-04T18:11:23.947Z,15.45
2022-12-04T18:13:56.789Z,18.92
2022-12-04T18:16:24.837Z,18.83
2022-12-04T18:18:56.535Z,15.43
2022-12-04T18:23:50.750Z,18.55
2022-12-04T18:26:20.431Z,20.55
2022-12-04T18:28:48.619Z,19.42
2022-12-04T18:31:17.004Z,19.25
2022-12-04T18:33:44.114Z,18.70
2022-12-04T18:36:17.116Z,20.23
2022-12-04T18:38:44.615Z,17.25
2022-12-04T18:41:13.803Z,21.92
2022-12-04T18:43:43.901Z,16.38
2022-12-04T18:46:14.362Z,17.23
2022-12-04T18:48:42.384Z,16.85
2022-12-04T18:51:20.560Z,20.02
2022-12-04T18:53:48.513Z,18.08
2022-12-04T18:56:15.763Z,18.45
2022-12-04T18:58:42.865Z,14.07
2022-12-04T19:01:11.331Z,17.67
2022-12-04T19:03:38.316Z,16.10
2022-12-04T19:06:05.627Z,17.75
2022-12-04T19:08:35.009Z,17.60
2022-12-04T19:11:15.860Z,20.50
2022-12-04T19:13:42.686Z,15.50
2022-12-04T19:16:14.054Z,18.38
2022-12-04T19:18:51.101Z,17.90
2022-12-04T19:21:18.473Z,17.02
2022-12-04T19:23:51.402Z,17.17
2022-12-04T19:26:18.295Z,18.40
2022-12-04T19:28:45.348Z,19.85
2022-12-04T19:31:16.929Z,19.33
2022-12-04T19:36:11.973Z,19.77
2022-12-04T19:38:39.479Z,20.40
2022-12-04T19:41:12.180Z,17.42
2022-12-04T19:43:41.037Z,20.92
2022-12-04T19:46:09.828Z,21.20
2022-12-04T19:48:37.969Z,15.07
2022-12-04T19:51:10.188Z,18.17
2022-12-04T19:53:40.886Z,18.40
2022-12-04T19:56:17.596Z,20.02
2022-12-04T19:58:44.319Z,18.55
2022-12-04T20:01:14.516Z,19.60
2022-12-04T20:03:41.764Z,19.63
2022-12-04T20:06:16.631Z,17.17
2022-12-04T20:08:43.388Z,22.70
2022-12-04T20:11:13.429Z,20.15
2022-12-04T20:13:40.573Z,18.58
2022-12-04T20:16:09.937Z,18.25
2022-12-04T20:18:41.378Z,16.88
2022-12-04T20:21:12.086Z,20.38
2022-12-04T20:23:46.543Z,18.58
2022-12-04T20:26:14.369Z,18.58
2022-12-04T20:28:41.716Z,18.08
2022-12-04T20:31:16.401Z,16.55
2022-12-04T20:33:45.045Z,17.08
2022-12-04T20:36:12.979Z,16.50
2022-12-04T20:38:41.531Z,17.70
2022-12-04T20:41:10.524Z,19.90
2022-12-04T20:43:37.303Z,17.80
2022-12-04T20:46:15.609Z,20.10
2022-12-04T20:48:48.823Z,19.20
2022-12-04T20:51:18.527Z,18.30
2022-12-04T20:53:46.688Z,17.10
2022-12-04T20:56:13.769Z,18.30
2022-12-04T20:58:41.277Z,19.00
2022-12-04T21:01:14.170Z,20.33
2022-12-04T21:03:42.151Z,21.60
2022-12-04T21:06:17.942Z,15.57
2022-12-04T21:08:53.541Z,22.30
2022-12-04T21:11:32.043Z,19.08
2022-12-04T21:14:18.851Z,17.85
2022-12-04T21:16:46.328Z,20.15
2022-12-04T21:19:14.786Z,19.15
2022-12-04T21:21:42.197Z,21.40
2022-12-04T21:24:12.370Z,20.52
2022-12-04T21:26:39.385Z,23.30
2022-12-04T21:29:07.801Z,19.77
2022-12-04T21:31:36.297Z,21.33
2022-12-04T21:34:05.591Z,18.23
2022-12-04T21:36:32.350Z,16.70
2022-12-04T21:38:59.108Z,19.48
2022-12-04T21:41:44.560Z,18.23
2022-12-04T21:44:17.407Z,17.83
2022-12-04T21:46:46.275Z,17.75
2022-12-04T21:49:14.155Z,19.95
2022-12-04T21:51:57.443Z,19.65
2022-12-04T21:54:26.119Z,20.38
2022-12-04T21:56:53.111Z,17.92
2022-12-04T21:59:19.874Z,18.13
2022-12-04T22:01:47.359Z,23.88
2022-12-04T22:04:14.333Z,24.02
2022-12-04T22:06:41.047Z,19.50
2022-12-04T22:09:10.064Z,18.52
2022-12-04T22:11:38.093Z,20.45
2022-12-04T22:14:04.928Z,20.48
2022-12-04T22:16:34.640Z,19.63
2022-12-04T22:19:04.124Z,22.13
2022-12-04T22:21:30.921Z,19.67
2022-12-04T22:24:17.732Z,22.40
2022-12-04T22:26:44.476Z,20.77
2022-12-04T22:29:42.061Z,19.55
2022-12-04T22:31:58.028Z,19.27
2022-12-04T22:34:24.772Z,21.10
2022-12-04T22:36:51.448Z,20.08
2022-12-04T22:39:18.243Z,18.73
2022-12-04T22:41:45.043Z,19.77
2022-12-04T22:44:11.736Z,24.33
2022-12-04T22:46:38.557Z,19.55
2022-12-04T22:49:05.411Z,21.77
2022-12-04T22:51:32.128Z,21.85
2022-12-04T22:53:58.852Z,21.17
2022-12-04T22:56:28.608Z,20.20
2022-12-04T22:58:56.345Z,22.65
2022-12-04T23:01:25.597Z,20.88
2022-12-04T23:03:53.775Z,18.92
2022-12-04T23:06:22.766Z,20.92
2022-12-04T23:08:53.798Z,23.23
2022-12-04T23:11:21.743Z,20.58
2022-12-04T23:13:53.623Z,18.90
2022-12-04T23:16:22.544Z,17.83
2022-12-04T23:18:50.273Z,20.55
2022-12-04T23:21:18.817Z,18.88
2022-12-04T23:23:47.031Z,18.15
2022-12-04T23:26:16.775Z,19.33
2022-12-04T23:28:43.960Z,20.30
2022-12-04T23:31:11.584Z,19.92
2022-12-04T23:33:39.470Z,15.68
2022-12-04T23:36:07.871Z,17.67
2022-12-04T23:38:36.261Z,18.95
2022-12-04T23:41:05.318Z,20.92
2022-12-04T23:43:33.087Z,22.45
2022-12-04T23:45:59.927Z,22.80
2022-12-04T23:48:27.376Z,21.75
2022-12-04T23:50:54.425Z,17.90
2022-12-04T23:53:21.719Z,20.63
2022-12-04T23:56:04.596Z,22.30
2022-12-04T23:58:32.476Z,18.05
